sensor_id;sensor_type;location;lat;lon;timestamp;P1;durP1;ratioP1;P2;durP2;ratioP2
82410;SDS011;72054;55.772;49.096;2023-08-07T00:00:40;5.15;;;2.30;;
82410;SDS011;72054;55.772;49.096;2023-08-07T00:01:41;3.70;;;2.42;;
82410;SDS011;72054;55.772;49.096;2023-08-07T00:02:41;3.60;;;2.30;;
82410;SDS011;72054;55.772;49.096;2023-08-07T00:03:42;3.85;;;2.22;;
82410;SDS011;72054;55.772;49.096;2023-08-07T00:04:43;3.88;;;2.55;;
82410;SDS011;72054;55.772;49.096;2023-08-07T00:05:46;3.38;;;2.47;;
82410;SDS011;72054;55.772;49.096;2023-08-07T00:06:47;4.55;;;2.63;;
82410;SDS011;72054;55.772;49.096;2023-08-07T00:07:47;3.42;;;2.33;;
82410;SDS011;72054;55.772;49.096;2023-08-07T00:08:48;3.88;;;2.40;;
82410;SDS011;72054;55.772;49.096;2023-08-07T00:09:48;4.95;;;2.53;;
82410;SDS011;72054;55.772;49.096;2023-08-07T00:10:49;3.15;;;2.40;;
82410;SDS011;72054;55.772;49.096;2023-08-07T00:11:49;4.80;;;2.55;;
82410;SDS011;72054;55.772;49.096;2023-08-07T00:12:50;3.17;;;2.30;;
82410;SDS011;72054;55.772;49.096;2023-08-07T00:13:50;3.42;;;2.42;;
82410;SDS011;72054;55.772;49.096;2023-08-07T00:14:51;3.75;;;2.50;;
82410;SDS011;72054;55.772;49.096;2023-08-07T00:15:51;3.88;;;2.40;;
82410;SDS011;72054;55.772;49.096;2023-08-07T00:16:52;3.53;;;2.22;;
82410;SDS011;72054;55.772;49.096;2023-08-07T00:17:52;3.95;;;2.30;;
82410;SDS011;72054;55.772;49.096;2023-08-07T00:18:53;4.50;;;2.42;;
82410;SDS011;72054;55.772;49.096;2023-08-07T00:19:56;3.42;;;2.42;;
82410;SDS011;72054;55.772;49.096;2023-08-07T00:20:56;3.80;;;2.42;;
82410;SDS011;72054;55.772;49.096;2023-08-07T00:21:56;4.03;;;2.70;;
82410;SDS011;72054;55.772;49.096;2023-08-07T00:22:57;5.43;;;2.50;;
82410;SDS011;72054;55.772;49.096;2023-08-07T00:23:57;4.40;;;2.50;;
82410;SDS011;72054;55.772;49.096;2023-08-07T00:24:58;4.90;;;2.53;;
82410;SDS011;72054;55.772;49.096;2023-08-07T00:25:58;3.30;;;2.30;;
82410;SDS011;72054;55.772;49.096;2023-08-07T00:26:59;3.45;;;2.40;;
82410;SDS011;72054;55.772;49.096;2023-08-07T00:27:59;4.28;;;2.35;;
82410;SDS011;72054;55.772;49.096;2023-08-07T00:29:00;3.65;;;2.40;;
82410;SDS011;72054;55.772;49.096;2023-08-07T00:30:00;4.35;;;2.45;;
82410;SDS011;72054;55.772;49.096;2023-08-07T00:31:01;4.25;;;2.20;;
82410;SDS011;72054;55.772;49.096;2023-08-07T00:32:01;3.38;;;2.38;;
82410;SDS011;72054;55.772;49.096;2023-08-07T00:34:03;3.83;;;2.70;;
82410;SDS011;72054;55.772;49.096;2023-08-07T00:35:04;4.40;;;2.30;;
82410;SDS011;72054;55.772;49.096;2023-08-07T00:36:06;3.50;;;2.33;;
82410;SDS011;72054;55.772;49.096;2023-08-07T00:37:06;3.58;;;2.58;;
82410;SDS011;72054;55.772;49.096;2023-08-07T00:38:06;4.60;;;2.50;;
82410;SDS011;72054;55.772;49.096;2023-08-07T00:39:07;4.05;;;2.30;;
82410;SDS011;72054;55.772;49.096;2023-08-07T00:41:09;4.35;;;2.20;;
82410;SDS011;72054;55.772;49.096;2023-08-07T00:42:10;4.95;;;2.28;;
82410;SDS011;72054;55.772;49.096;2023-08-07T00:43:10;3.72;;;2.20;;
82410;SDS011;72054;55.772;49.096;2023-08-07T00:44:10;5.05;;;2.30;;
82410;SDS011;72054;55.772;49.096;2023-08-07T00:45:11;4.78;;;2.53;;
82410;SDS011;72054;55.772;49.096;2023-08-07T00:46:11;3.90;;;2.45;;
82410;SDS011;72054;55.772;49.096;2023-08-07T00:47:12;5.05;;;2.22;;
82410;SDS011;72054;55.772;49.096;2023-08-07T00:48:13;3.60;;;2.22;;
82410;SDS011;72054;55.772;49.096;2023-08-07T00:49:16;3.75;;;2.35;;
82410;SDS011;72054;55.772;49.096;2023-08-07T00:50:18;3.85;;;2.30;;
82410;SDS011;72054;55.772;49.096;2023-08-07T00:51:19;3.50;;;2.25;;
82410;SDS011;72054;55.772;49.096;2023-08-07T00:52:20;5.80;;;2.50;;
82410;SDS011;72054;55.772;49.096;2023-08-07T00:53:20;3.75;;;2.20;;
82410;SDS011;72054;55.772;49.096;2023-08-07T00:54:21;3.13;;;2.40;;
82410;SDS011;72054;55.772;49.096;2023-08-07T00:55:22;3.38;;;2.42;;
82410;SDS011;72054;55.772;49.096;2023-08-07T00:56:22;3.78;;;2.50;;
82410;SDS011;72054;55.772;49.096;2023-08-07T00:57:23;3.95;;;2.55;;
82410;SDS011;72054;55.772;49.096;2023-08-07T00:58:25;2.80;;;1.92;;
82410;SDS011;72054;55.772;49.096;2023-08-07T00:59:26;4.43;;;2.50;;
82410;SDS011;72054;55.772;49.096;2023-08-07T01:00:29;3.47;;;2.45;;
82410;SDS011;72054;55.772;49.096;2023-08-07T01:01:30;4.47;;;2.58;;
82410;SDS011;72054;55.772;49.096;2023-08-07T01:02:31;3.78;;;2.45;;
82410;SDS011;72054;55.772;49.096;2023-08-07T01:03:31;3.25;;;2.55;;
82410;SDS011;72054;55.772;49.096;2023-08-07T01:04:32;4.57;;;2.38;;
82410;SDS011;72054;55.772;49.096;2023-08-07T01:05:32;4.28;;;2.50;;
82410;SDS011;72054;55.772;49.096;2023-08-07T01:06:34;4.03;;;2.30;;
82410;SDS011;72054;55.772;49.096;2023-08-07T01:07:34;3.97;;;2.28;;
82410;SDS011;72054;55.772;49.096;2023-08-07T01:08:35;4.43;;;2.30;;
82410;SDS011;72054;55.772;49.096;2023-08-07T01:09:36;3.50;;;2.28;;
82410;SDS011;72054;55.772;49.096;2023-08-07T01:11:48;5.72;;;2.42;;
82410;SDS011;72054;55.772;49.096;2023-08-07T01:12:55;3.83;;;2.80;;
82410;SDS011;72054;55.772;49.096;2023-08-07T01:15:11;4.38;;;2.20;;
82410;SDS011;72054;55.772;49.096;2023-08-07T01:17:47;4.03;;;2.30;;
82410;SDS011;72054;55.772;49.096;2023-08-07T01:18:49;3.80;;;2.40;;
82410;SDS011;72054;55.772;49.096;2023-08-07T01:19:51;3.92;;;2.40;;
82410;SDS011;72054;55.772;49.096;2023-08-07T01:20:52;4.97;;;2.40;;
82410;SDS011;72054;55.772;49.096;2023-08-07T01:23:20;2.88;;;2.17;;
82410;SDS011;72054;55.772;49.096;2023-08-07T01:24:20;4.43;;;2.63;;
82410;SDS011;72054;55.772;49.096;2023-08-07T01:25:21;4.72;;;2.83;;
82410;SDS011;72054;55.772;49.096;2023-08-07T01:26:21;3.70;;;2.30;;
82410;SDS011;72054;55.772;49.096;2023-08-07T01:28:38;3.05;;;2.38;;
82410;SDS011;72054;55.772;49.096;2023-08-07T01:30:59;2.83;;;2.17;;
82410;SDS011;72054;55.772;49.096;2023-08-07T01:32:03;5.05;;;2.40;;
82410;SDS011;72054;55.772;49.096;2023-08-07T01:33:24;3.60;;;2.50;;
82410;SDS011;72054;55.772;49.096;2023-08-07T01:34:32;3.60;;;2.20;;
82410;SDS011;72054;55.772;49.096;2023-08-07T01:35:35;3.10;;;2.05;;
82410;SDS011;72054;55.772;49.096;2023-08-07T01:36:44;4.55;;;2.22;;
82410;SDS011;72054;55.772;49.096;2023-08-07T01:37:46;3.47;;;2.20;;
82410;SDS011;72054;55.772;49.096;2023-08-07T01:39:48;3.58;;;2.22;;
82410;SDS011;72054;55.772;49.096;2023-08-07T01:40:51;3.03;;;2.15;;
82410;SDS011;72054;55.772;49.096;2023-08-07T01:41:53;5.03;;;2.58;;
82410;SDS011;72054;55.772;49.096;2023-08-07T01:42:54;5.07;;;2.30;;
82410;SDS011;72054;55.772;49.096;2023-08-07T01:43:55;4.10;;;2.20;;
82410;SDS011;72054;55.772;49.096;2023-08-07T01:44:57;3.63;;;2.10;;
82410;SDS011;72054;55.772;49.096;2023-08-07T01:45:58;3.28;;;2.50;;
82410;SDS011;72054;55.772;49.096;2023-08-07T01:48:00;3.55;;;2.42;;
82410;SDS011;72054;55.772;49.096;2023-08-07T01:49:00;5.90;;;2.30;;
82410;SDS011;72054;55.772;49.096;2023-08-07T01:50:01;3.70;;;2.30;;
82410;SDS011;72054;55.772;49.096;2023-08-07T01:51:02;3.72;;;2.20;;
82410;SDS011;72054;55.772;49.096;2023-08-07T01:52:03;3.47;;;2.10;;
82410;SDS011;72054;55.772;49.096;2023-08-07T01:53:04;3.30;;;2.40;;
82410;SDS011;72054;55.772;49.096;2023-08-07T01:54:05;3.28;;;2.40;;
82410;SDS011;72054;55.772;49.096;2023-08-07T01:55:05;3.92;;;2.10;;
82410;SDS011;72054;55.772;49.096;2023-08-07T01:56:06;3.17;;;2.40;;
82410;SDS011;72054;55.772;49.096;2023-08-07T01:57:06;3.55;;;2.13;;
82410;SDS011;72054;55.772;49.096;2023-08-07T01:58:07;3.50;;;2.20;;
82410;SDS011;72054;55.772;49.096;2023-08-07T01:59:07;3.47;;;2.25;;
82410;SDS011;72054;55.772;49.096;2023-08-07T02:00:08;3.72;;;2.25;;
82410;SDS011;72054;55.772;49.096;2023-08-07T02:01:09;3.83;;;2.30;;
82410;SDS011;72054;55.772;49.096;2023-08-07T02:02:09;3.42;;;2.47;;
82410;SDS011;72054;55.772;49.096;2023-08-07T02:03:10;3.38;;;2.30;;
82410;SDS011;72054;55.772;49.096;2023-08-07T02:04:10;4.15;;;2.30;;
82410;SDS011;72054;55.772;49.096;2023-08-07T02:05:11;3.03;;;2.30;;
82410;SDS011;72054;55.772;49.096;2023-08-07T02:06:11;4.05;;;2.30;;
82410;SDS011;72054;55.772;49.096;2023-08-07T02:07:12;4.75;;;2.63;;
82410;SDS011;72054;55.772;49.096;2023-08-07T02:08:12;3.25;;;2.20;;
82410;SDS011;72054;55.772;49.096;2023-08-07T02:09:13;3.75;;;2.20;;
82410;SDS011;72054;55.772;49.096;2023-08-07T02:10:13;3.30;;;2.40;;
82410;SDS011;72054;55.772;49.096;2023-08-07T02:11:14;3.17;;;2.20;;
82410;SDS011;72054;55.772;49.096;2023-08-07T02:12:14;4.68;;;2.75;;
82410;SDS011;72054;55.772;49.096;2023-08-07T02:13:15;5.32;;;2.83;;
82410;SDS011;72054;55.772;49.096;2023-08-07T02:14:15;4.22;;;2.38;;
82410;SDS011;72054;55.772;49.096;2023-08-07T02:15:16;3.35;;;2.30;;
82410;SDS011;72054;55.772;49.096;2023-08-07T02:16:16;4.70;;;2.20;;
82410;SDS011;72054;55.772;49.096;2023-08-07T02:17:17;3.28;;;2.40;;
82410;SDS011;72054;55.772;49.096;2023-08-07T02:18:19;3.97;;;2.30;;
82410;SDS011;72054;55.772;49.096;2023-08-07T02:19:20;3.42;;;2.20;;
82410;SDS011;72054;55.772;49.096;2023-08-07T02:20:21;3.50;;;2.00;;
82410;SDS011;72054;55.772;49.096;2023-08-07T02:21:21;3.90;;;2.45;;
82410;SDS011;72054;55.772;49.096;2023-08-07T02:22:22;3.78;;;2.38;;
82410;SDS011;72054;55.772;49.096;2023-08-07T02:23:22;3.90;;;2.50;;
82410;SDS011;72054;55.772;49.096;2023-08-07T02:24:23;3.35;;;2.50;;
82410;SDS011;72054;55.772;49.096;2023-08-07T02:25:23;3.22;;;2.28;;
82410;SDS011;72054;55.772;49.096;2023-08-07T02:26:24;3.08;;;2.25;;
82410;SDS011;72054;55.772;49.096;2023-08-07T02:27:24;3.28;;;2.38;;
82410;SDS011;72054;55.772;49.096;2023-08-07T02:28:24;2.90;;;2.10;;
82410;SDS011;72054;55.772;49.096;2023-08-07T02:29:25;3.10;;;2.15;;
82410;SDS011;72054;55.772;49.096;2023-08-07T02:30:25;4.93;;;2.40;;
82410;SDS011;72054;55.772;49.096;2023-08-07T02:31:26;4.50;;;2.45;;
82410;SDS011;72054;55.772;49.096;2023-08-07T02:32:26;5.10;;;2.28;;
82410;SDS011;72054;55.772;49.096;2023-08-07T02:33:27;3.38;;;2.40;;
82410;SDS011;72054;55.772;49.096;2023-08-07T02:34:30;5.63;;;2.33;;
82410;SDS011;72054;55.772;49.096;2023-08-07T02:35:31;3.78;;;2.88;;
82410;SDS011;72054;55.772;49.096;2023-08-07T02:36:31;3.30;;;2.38;;
82410;SDS011;72054;55.772;49.096;2023-08-07T02:37:32;6.82;;;2.53;;
82410;SDS011;72054;55.772;49.096;2023-08-07T02:38:32;4.20;;;2.20;;
82410;SDS011;72054;55.772;49.096;2023-08-07T02:39:33;5.13;;;2.30;;
82410;SDS011;72054;55.772;49.096;2023-08-07T02:40:33;5.85;;;2.25;;
82410;SDS011;72054;55.772;49.096;2023-08-07T02:41:34;4.20;;;2.35;;
82410;SDS011;72054;55.772;49.096;2023-08-07T02:42:34;6.05;;;2.33;;
82410;SDS011;72054;55.772;49.096;2023-08-07T02:43:35;4.38;;;2.80;;
82410;SDS011;72054;55.772;49.096;2023-08-07T02:44:36;5.68;;;2.60;;
82410;SDS011;72054;55.772;49.096;2023-08-07T02:45:36;4.32;;;2.42;;
82410;SDS011;72054;55.772;49.096;2023-08-07T02:46:37;4.30;;;2.40;;
82410;SDS011;72054;55.772;49.096;2023-08-07T02:47:37;5.68;;;2.50;;
82410;SDS011;72054;55.772;49.096;2023-08-07T02:48:38;4.53;;;2.38;;
82410;SDS011;72054;55.772;49.096;2023-08-07T02:49:40;3.58;;;2.28;;
82410;SDS011;72054;55.772;49.096;2023-08-07T02:50:40;7.15;;;2.88;;
82410;SDS011;72054;55.772;49.096;2023-08-07T02:51:40;3.03;;;2.42;;
82410;SDS011;72054;55.772;49.096;2023-08-07T02:52:41;3.60;;;2.30;;
82410;SDS011;72054;55.772;49.096;2023-08-07T02:53:41;6.30;;;2.38;;
82410;SDS011;72054;55.772;49.096;2023-08-07T02:54:42;3.33;;;2.40;;
82410;SDS011;72054;55.772;49.096;2023-08-07T02:55:45;4.75;;;2.30;;
82410;SDS011;72054;55.772;49.096;2023-08-07T02:56:45;4.32;;;2.53;;
82410;SDS011;72054;55.772;49.096;2023-08-07T02:57:46;4.10;;;2.50;;
82410;SDS011;72054;55.772;49.096;2023-08-07T02:58:46;4.10;;;2.38;;
82410;SDS011;72054;55.772;49.096;2023-08-07T02:59:47;3.70;;;2.25;;
82410;SDS011;72054;55.772;49.096;2023-08-07T03:00:48;6.95;;;2.17;;
82410;SDS011;72054;55.772;49.096;2023-08-07T03:01:49;5.43;;;2.53;;
82410;SDS011;72054;55.772;49.096;2023-08-07T03:02:50;5.28;;;2.55;;
82410;SDS011;72054;55.772;49.096;2023-08-07T03:03:50;6.60;;;2.40;;
82410;SDS011;72054;55.772;49.096;2023-08-07T03:04:51;5.50;;;2.50;;
82410;SDS011;72054;55.772;49.096;2023-08-07T03:05:51;5.72;;;2.53;;
82410;SDS011;72054;55.772;49.096;2023-08-07T03:06:52;5.10;;;2.42;;
82410;SDS011;72054;55.772;49.096;2023-08-07T03:07:52;8.88;;;2.63;;
82410;SDS011;72054;55.772;49.096;2023-08-07T03:08:53;3.75;;;2.50;;
82410;SDS011;72054;55.772;49.096;2023-08-07T03:09:53;4.88;;;2.50;;
82410;SDS011;72054;55.772;49.096;2023-08-07T03:10:54;3.45;;;2.50;;
82410;SDS011;72054;55.772;49.096;2023-08-07T03:11:56;3.35;;;2.40;;
82410;SDS011;72054;55.772;49.096;2023-08-07T03:13:03;3.83;;;2.35;;
82410;SDS011;72054;55.772;49.096;2023-08-07T03:14:03;5.85;;;2.53;;
82410;SDS011;72054;55.772;49.096;2023-08-07T03:15:04;4.47;;;2.33;;
82410;SDS011;72054;55.772;49.096;2023-08-07T03:16:05;2.97;;;2.47;;
82410;SDS011;72054;55.772;49.096;2023-08-07T03:17:07;4.00;;;2.47;;
82410;SDS011;72054;55.772;49.096;2023-08-07T03:18:07;3.10;;;2.25;;
82410;SDS011;72054;55.772;49.096;2023-08-07T03:19:08;4.88;;;3.20;;
82410;SDS011;72054;55.772;49.096;2023-08-07T03:20:09;3.78;;;2.38;;
82410;SDS011;72054;55.772;49.096;2023-08-07T03:21:10;4.82;;;2.88;;
82410;SDS011;72054;55.772;49.096;2023-08-07T03:22:11;4.72;;;2.58;;
82410;SDS011;72054;55.772;49.096;2023-08-07T03:23:11;3.30;;;2.30;;
82410;SDS011;72054;55.772;49.096;2023-08-07T03:24:12;11.68;;;2.80;;
82410;SDS011;72054;55.772;49.096;2023-08-07T03:25:12;6.38;;;2.55;;
82410;SDS011;72054;55.772;49.096;2023-08-07T03:26:13;5.00;;;2.60;;
82410;SDS011;72054;55.772;49.096;2023-08-07T03:27:13;5.72;;;2.70;;
82410;SDS011;72054;55.772;49.096;2023-08-07T03:28:14;6.40;;;2.53;;
82410;SDS011;72054;55.772;49.096;2023-08-07T03:29:14;5.25;;;2.45;;
82410;SDS011;72054;55.772;49.096;2023-08-07T03:30:15;3.90;;;2.75;;
82410;SDS011;72054;55.772;49.096;2023-08-07T03:31:16;8.90;;;2.92;;
82410;SDS011;72054;55.772;49.096;2023-08-07T03:32:16;4.93;;;2.67;;
82410;SDS011;72054;55.772;49.096;2023-08-07T03:33:17;4.10;;;2.70;;
82410;SDS011;72054;55.772;49.096;2023-08-07T03:34:17;4.43;;;3.00;;
82410;SDS011;72054;55.772;49.096;2023-08-07T03:35:18;5.20;;;2.42;;
82410;SDS011;72054;55.772;49.096;2023-08-07T03:36:18;3.30;;;2.17;;
82410;SDS011;72054;55.772;49.096;2023-08-07T03:37:19;3.75;;;2.70;;
82410;SDS011;72054;55.772;49.096;2023-08-07T03:38:19;5.00;;;2.70;;
82410;SDS011;72054;55.772;49.096;2023-08-07T03:39:20;4.53;;;2.40;;
82410;SDS011;72054;55.772;49.096;2023-08-07T03:40:20;4.00;;;2.35;;
82410;SDS011;72054;55.772;49.096;2023-08-07T03:41:21;5.20;;;2.60;;
82410;SDS011;72054;55.772;49.096;2023-08-07T03:42:21;4.82;;;2.53;;
82410;SDS011;72054;55.772;49.096;2023-08-07T03:43:22;4.35;;;2.50;;
82410;SDS011;72054;55.772;49.096;2023-08-07T03:44:22;3.63;;;2.55;;
82410;SDS011;72054;55.772;49.096;2023-08-07T03:45:23;3.88;;;2.40;;
82410;SDS011;72054;55.772;49.096;2023-08-07T03:46:23;5.07;;;2.50;;
82410;SDS011;72054;55.772;49.096;2023-08-07T03:47:24;2.95;;;2.45;;
82410;SDS011;72054;55.772;49.096;2023-08-07T03:48:24;3.78;;;2.28;;
82410;SDS011;72054;55.772;49.096;2023-08-07T03:49:25;5.55;;;2.63;;
82410;SDS011;72054;55.772;49.096;2023-08-07T03:50:25;8.80;;;3.50;;
82410;SDS011;72054;55.772;49.096;2023-08-07T03:51:26;6.47;;;2.58;;
82410;SDS011;72054;55.772;49.096;2023-08-07T03:52:26;3.63;;;2.70;;
82410;SDS011;72054;55.772;49.096;2023-08-07T03:53:27;8.27;;;3.05;;
82410;SDS011;72054;55.772;49.096;2023-08-07T03:54:27;4.22;;;2.25;;
82410;SDS011;72054;55.772;49.096;2023-08-07T03:55:28;3.63;;;2.65;;
82410;SDS011;72054;55.772;49.096;2023-08-07T03:56:28;3.78;;;2.70;;
82410;SDS011;72054;55.772;49.096;2023-08-07T03:57:32;5.80;;;3.13;;
82410;SDS011;72054;55.772;49.096;2023-08-07T03:58:32;3.72;;;2.70;;
82410;SDS011;72054;55.772;49.096;2023-08-07T03:59:33;6.18;;;2.47;;
82410;SDS011;72054;55.772;49.096;2023-08-07T04:00:34;5.38;;;2.50;;
82410;SDS011;72054;55.772;49.096;2023-08-07T04:01:34;3.65;;;2.58;;
82410;SDS011;72054;55.772;49.096;2023-08-07T04:02:34;3.10;;;2.35;;
82410;SDS011;72054;55.772;49.096;2023-08-07T04:03:35;4.32;;;2.50;;
82410;SDS011;72054;55.772;49.096;2023-08-07T04:05:36;4.38;;;2.83;;
82410;SDS011;72054;55.772;49.096;2023-08-07T04:06:37;5.22;;;2.80;;
82410;SDS011;72054;55.772;49.096;2023-08-07T04:07:37;4.78;;;2.53;;
82410;SDS011;72054;55.772;49.096;2023-08-07T04:08:38;3.25;;;2.58;;
82410;SDS011;72054;55.772;49.096;2023-08-07T04:09:38;4.03;;;2.30;;
82410;SDS011;72054;55.772;49.096;2023-08-07T04:10:39;4.35;;;2.65;;
82410;SDS011;72054;55.772;49.096;2023-08-07T04:11:40;4.57;;;2.65;;
82410;SDS011;72054;55.772;49.096;2023-08-07T04:12:40;7.25;;;2.45;;
82410;SDS011;72054;55.772;49.096;2023-08-07T04:13:41;7.78;;;2.83;;
82410;SDS011;72054;55.772;49.096;2023-08-07T04:14:41;7.65;;;2.80;;
82410;SDS011;72054;55.772;49.096;2023-08-07T04:15:42;3.88;;;2.72;;
82410;SDS011;72054;55.772;49.096;2023-08-07T04:16:42;3.83;;;2.50;;
82410;SDS011;72054;55.772;49.096;2023-08-07T04:17:42;5.93;;;3.00;;
82410;SDS011;72054;55.772;49.096;2023-08-07T04:18:43;3.63;;;2.80;;
82410;SDS011;72054;55.772;49.096;2023-08-07T04:19:43;4.30;;;2.88;;
82410;SDS011;72054;55.772;49.096;2023-08-07T04:20:50;6.68;;;2.67;;
82410;SDS011;72054;55.772;49.096;2023-08-07T04:21:54;6.50;;;2.50;;
82410;SDS011;72054;55.772;49.096;2023-08-07T04:22:55;4.22;;;2.70;;
82410;SDS011;72054;55.772;49.096;2023-08-07T04:23:55;7.03;;;2.50;;
82410;SDS011;72054;55.772;49.096;2023-08-07T04:24:56;6.88;;;2.83;;
82410;SDS011;72054;55.772;49.096;2023-08-07T04:25:56;5.50;;;2.38;;
82410;SDS011;72054;55.772;49.096;2023-08-07T04:26:56;5.50;;;2.90;;
82410;SDS011;72054;55.772;49.096;2023-08-07T04:27:57;3.67;;;2.67;;
82410;SDS011;72054;55.772;49.096;2023-08-07T04:28:57;3.22;;;2.45;;
82410;SDS011;72054;55.772;49.096;2023-08-07T04:29:58;3.42;;;2.50;;
82410;SDS011;72054;55.772;49.096;2023-08-07T04:30:59;4.18;;;2.90;;
82410;SDS011;72054;55.772;49.096;2023-08-07T04:31:59;7.15;;;3.13;;
82410;SDS011;72054;55.772;49.096;2023-08-07T04:32:59;2.95;;;2.42;;
82410;SDS011;72054;55.772;49.096;2023-08-07T04:34:00;4.97;;;2.75;;
82410;SDS011;72054;55.772;49.096;2023-08-07T04:35:00;3.88;;;2.47;;
82410;SDS011;72054;55.772;49.096;2023-08-07T04:36:01;3.83;;;2.70;;
82410;SDS011;72054;55.772;49.096;2023-08-07T04:37:02;3.75;;;2.42;;
82410;SDS011;72054;55.772;49.096;2023-08-07T04:38:02;6.15;;;3.13;;
82410;SDS011;72054;55.772;49.096;2023-08-07T04:39:03;5.47;;;2.60;;
82410;SDS011;72054;55.772;49.096;2023-08-07T04:40:03;4.13;;;2.50;;
82410;SDS011;72054;55.772;49.096;2023-08-07T04:42:05;6.05;;;2.88;;
82410;SDS011;72054;55.772;49.096;2023-08-07T04:43:06;3.95;;;2.60;;
82410;SDS011;72054;55.772;49.096;2023-08-07T04:44:06;5.25;;;2.78;;
82410;SDS011;72054;55.772;49.096;2023-08-07T04:45:07;5.32;;;3.15;;
82410;SDS011;72054;55.772;49.096;2023-08-07T04:46:08;5.47;;;2.42;;
82410;SDS011;72054;55.772;49.096;2023-08-07T04:47:12;3.00;;;2.67;;
82410;SDS011;72054;55.772;49.096;2023-08-07T04:48:13;5.72;;;2.50;;
82410;SDS011;72054;55.772;49.096;2023-08-07T04:49:14;4.00;;;2.40;;
82410;SDS011;72054;55.772;49.096;2023-08-07T04:50:14;9.77;;;4.18;;
82410;SDS011;72054;55.772;49.096;2023-08-07T04:51:15;4.50;;;3.33;;
82410;SDS011;72054;55.772;49.096;2023-08-07T04:52:15;5.38;;;3.20;;
82410;SDS011;72054;55.772;49.096;2023-08-07T04:53:16;3.83;;;2.78;;
82410;SDS011;72054;55.772;49.096;2023-08-07T04:54:16;5.30;;;3.40;;
82410;SDS011;72054;55.772;49.096;2023-08-07T04:55:17;5.78;;;3.20;;
82410;SDS011;72054;55.772;49.096;2023-08-07T04:56:17;4.68;;;3.10;;
82410;SDS011;72054;55.772;49.096;2023-08-07T04:57:18;4.22;;;3.00;;
82410;SDS011;72054;55.772;49.096;2023-08-07T04:58:18;6.03;;;2.92;;
82410;SDS011;72054;55.772;49.096;2023-08-07T04:59:19;3.75;;;2.78;;
82410;SDS011;72054;55.772;49.096;2023-08-07T05:00:20;5.05;;;3.08;;
82410;SDS011;72054;55.772;49.096;2023-08-07T05:01:21;4.40;;;3.10;;
82410;SDS011;72054;55.772;49.096;2023-08-07T05:02:22;5.18;;;3.17;;
82410;SDS011;72054;55.772;49.096;2023-08-07T05:03:23;3.70;;;3.22;;
82410;SDS011;72054;55.772;49.096;2023-08-07T05:04:23;5.43;;;3.65;;
82410;SDS011;72054;55.772;49.096;2023-08-07T05:05:24;3.80;;;3.13;;
82410;SDS011;72054;55.772;49.096;2023-08-07T05:06:25;3.97;;;2.67;;
82410;SDS011;72054;55.772;49.096;2023-08-07T05:07:25;4.60;;;3.05;;
82410;SDS011;72054;55.772;49.096;2023-08-07T05:08:25;3.72;;;2.90;;
82410;SDS011;72054;55.772;49.096;2023-08-07T05:09:28;11.45;;;9.93;;
82410;SDS011;72054;55.772;49.096;2023-08-07T05:10:29;3.75;;;3.25;;
82410;SDS011;72054;55.772;49.096;2023-08-07T05:11:30;8.98;;;4.20;;
82410;SDS011;72054;55.772;49.096;2023-08-07T05:12:30;3.40;;;2.90;;
82410;SDS011;72054;55.772;49.096;2023-08-07T05:13:31;4.57;;;4.00;;
82410;SDS011;72054;55.772;49.096;2023-08-07T05:14:32;5.25;;;4.75;;
82410;SDS011;72054;55.772;49.096;2023-08-07T05:15:33;4.53;;;4.05;;
82410;SDS011;72054;55.772;49.096;2023-08-07T05:17:33;6.88;;;6.32;;
82410;SDS011;72054;55.772;49.096;2023-08-07T05:19:34;9.20;;;8.40;;
82410;SDS011;72054;55.772;49.096;2023-08-07T05:21:35;10.95;;;10.05;;
82410;SDS011;72054;55.772;49.096;2023-08-07T05:23:41;13.73;;;12.73;;
82410;SDS011;72054;55.772;49.096;2023-08-07T05:25:46;16.55;;;15.75;;
82410;SDS011;72054;55.772;49.096;2023-08-07T05:26:50;17.58;;;16.70;;
82410;SDS011;72054;55.772;49.096;2023-08-07T05:27:51;19.63;;;18.55;;
82410;SDS011;72054;55.772;49.096;2023-08-07T05:28:51;12.52;;;11.93;;
82410;SDS011;72054;55.772;49.096;2023-08-07T05:30:52;30.63;;;29.33;;
82410;SDS011;72054;55.772;49.096;2023-08-07T05:31:52;27.40;;;26.15;;
82410;SDS011;72054;55.772;49.096;2023-08-07T05:33:53;18.38;;;17.55;;
82410;SDS011;72054;55.772;49.096;2023-08-07T05:34:54;17.67;;;16.85;;
82410;SDS011;72054;55.772;49.096;2023-08-07T05:35:54;18.38;;;17.38;;
82410;SDS011;72054;55.772;49.096;2023-08-07T05:37:55;17.15;;;16.35;;
82410;SDS011;72054;55.772;49.096;2023-08-07T05:38:56;16.17;;;15.48;;
82410;SDS011;72054;55.772;49.096;2023-08-07T05:40:57;24.65;;;23.63;;
82410;SDS011;72054;55.772;49.096;2023-08-07T05:41:58;30.77;;;29.13;;
82410;SDS011;72054;55.772;49.096;2023-08-07T05:42:59;21.58;;;20.65;;
82410;SDS011;72054;55.772;49.096;2023-08-07T05:43:59;44.05;;;42.45;;
82410;SDS011;72054;55.772;49.096;2023-08-07T05:46:00;49.05;;;47.35;;
82410;SDS011;72054;55.772;49.096;2023-08-07T05:48:01;18.98;;;18.08;;
82410;SDS011;72054;55.772;49.096;2023-08-07T05:50:02;22.80;;;21.35;;
82410;SDS011;72054;55.772;49.096;2023-08-07T05:51:03;35.72;;;34.22;;
82410;SDS011;72054;55.772;49.096;2023-08-07T05:52:03;25.40;;;24.20;;
82410;SDS011;72054;55.772;49.096;2023-08-07T05:53:04;24.40;;;23.27;;
82410;SDS011;72054;55.772;49.096;2023-08-07T05:54:05;27.25;;;25.98;;
82410;SDS011;72054;55.772;49.096;2023-08-07T05:55:06;48.25;;;46.53;;
82410;SDS011;72054;55.772;49.096;2023-08-07T05:56:06;25.73;;;24.50;;
82410;SDS011;72054;55.772;49.096;2023-08-07T05:57:07;28.45;;;27.13;;
82410;SDS011;72054;55.772;49.096;2023-08-07T05:58:07;48.22;;;46.53;;
82410;SDS011;72054;55.772;49.096;2023-08-07T05:59:08;49.50;;;47.75;;
82410;SDS011;72054;55.772;49.096;2023-08-07T06:01:14;24.05;;;23.05;;
82410;SDS011;72054;55.772;49.096;2023-08-07T06:02:16;33.10;;;31.70;;
82410;SDS011;72054;55.772;49.096;2023-08-07T06:03:17;32.10;;;30.88;;
82410;SDS011;72054;55.772;49.096;2023-08-07T06:04:18;37.13;;;35.60;;
82410;SDS011;72054;55.772;49.096;2023-08-07T06:05:28;49.80;;;47.75;;
82410;SDS011;72054;55.772;49.096;2023-08-07T06:06:28;29.17;;;27.98;;
82410;SDS011;72054;55.772;49.096;2023-08-07T06:07:29;51.47;;;49.65;;
82410;SDS011;72054;55.772;49.096;2023-08-07T06:08:30;28.38;;;27.05;;
82410;SDS011;72054;55.772;49.096;2023-08-07T06:10:39;29.80;;;28.40;;
82410;SDS011;72054;55.772;49.096;2023-08-07T06:11:39;48.10;;;46.33;;
82410;SDS011;72054;55.772;49.096;2023-08-07T06:12:46;51.55;;;49.60;;
82410;SDS011;72054;55.772;49.096;2023-08-07T06:13:46;53.67;;;51.55;;
82410;SDS011;72054;55.772;49.096;2023-08-07T06:14:47;27.60;;;26.58;;
82410;SDS011;72054;55.772;49.096;2023-08-07T06:15:56;51.15;;;49.22;;
82410;SDS011;72054;55.772;49.096;2023-08-07T06:16:57;32.92;;;31.23;;
82410;SDS011;72054;55.772;49.096;2023-08-07T06:18:01;33.00;;;31.80;;
82410;SDS011;72054;55.772;49.096;2023-08-07T06:19:01;60.25;;;58.05;;
82410;SDS011;72054;55.772;49.096;2023-08-07T06:20:03;50.85;;;49.08;;
82410;SDS011;72054;55.772;49.096;2023-08-07T06:21:05;58.78;;;56.63;;
82410;SDS011;72054;55.772;49.096;2023-08-07T06:22:06;34.28;;;32.80;;
82410;SDS011;72054;55.772;49.096;2023-08-07T06:23:07;60.72;;;58.45;;
82410;SDS011;72054;55.772;49.096;2023-08-07T06:24:08;41.63;;;40.08;;
82410;SDS011;72054;55.772;49.096;2023-08-07T06:25:08;54.88;;;52.95;;
82410;SDS011;72054;55.772;49.096;2023-08-07T06:26:09;59.83;;;57.55;;
82410;SDS011;72054;55.772;49.096;2023-08-07T06:27:09;52.53;;;50.58;;
82410;SDS011;72054;55.772;49.096;2023-08-07T06:28:10;37.80;;;36.17;;
82410;SDS011;72054;55.772;49.096;2023-08-07T06:29:10;73.70;;;70.88;;